TimeCST,TemperatureF,Dew PointF,Humidity,Sea Level PressureIn,VisibilityMPH,Wind Direction,Wind SpeedMPH,Gust SpeedMPH,PrecipitationIn,Events,Conditions,WindDirDegrees,DateUTC
12:15 AM,-1.1,-6.9,77,30.70,10.0,NNW,3.5,-,N/A,,Clear,340,2013-12-07 06:15:00
12:35 AM,-1.5,-7.4,76,30.69,10.0,North,3.5,-,N/A,,Clear,360,2013-12-07 06:35:00
12:55 AM,-1.3,-7.1,77,30.68,10.0,North,5.8,-,N/A,,Clear,350,2013-12-07 06:55:00
1:15 AM,-0.4,-6.3,76,30.69,10.0,North,4.6,-,N/A,,Clear,360,2013-12-07 07:15:00
1:35 AM,-0.2,-6.7,74,30.69,10.0,North,4.6,-,N/A,,Clear,360,2013-12-07 07:35:00
1:55 AM,-0.8,-6.9,75,30.69,10.0,Calm,Calm,-,N/A,,Clear,0,2013-12-07 07:55:00
2:15 AM,-1.3,-7.6,75,30.70,10.0,NW,3.5,-,N/A,,Clear,320,2013-12-07 08:15:00
2:35 AM,-1.3,-7.4,75,30.70,10.0,NNW,3.5,-,N/A,,Clear,330,2013-12-07 08:35:00
2:55 AM,-1.3,-7.6,75,30.70,10.0,NNW,3.5,-,N/A,,Clear,340,2013-12-07 08:55:00
3:15 AM,-1.1,-7.1,76,30.70,10.0,North,5.8,-,N/A,,Clear,350,2013-12-07 09:15:00
3:35 AM,-1.1,-7.2,75,30.70,10.0,NNW,6.9,-,N/A,,Clear,340,2013-12-07 09:35:00
3:55 AM,-1.5,-7.6,75,30.69,10.0,North,5.8,-,N/A,,Clear,350,2013-12-07 09:55:00
4:15 AM,-2.7,-8.5,76,30.69,10.0,North,4.6,-,N/A,,Clear,360,2013-12-07 10:15:00
4:35 AM,-2.2,-8.0,76,30.70,10.0,North,3.5,-,N/A,,Clear,360,2013-12-07 10:35:00
4:55 AM,-3.1,-8.5,78,30.70,10.0,Calm,Calm,-,N/A,,Clear,0,2013-12-07 10:55:00
5:15 AM,-2.7,-8.1,78,30.69,10.0,NNW,4.6,-,N/A,,Clear,340,2013-12-07 11:15:00
5:35 AM,-2.2,-8.0,76,30.69,10.0,NNW,4.6,-,N/A,,Clear,340,2013-12-07 11:35:00
5:55 AM,-2.4,-8.1,76,30.69,10.0,Calm,Calm,-,N/A,,Clear,0,2013-12-07 11:55:00
6:15 AM,-2.0,-7.6,77,30.70,10.0,NW,3.5,-,N/A,,Clear,320,2013-12-07 12:15:00
6:35 AM,-1.3,-6.7,78,30.70,10.0,NW,3.5,-,N/A,,Clear,320,2013-12-07 12:35:00
6:55 AM,-0.9,-6.7,77,30.70,10.0,NNW,3.5,-,N/A,,Clear,330,2013-12-07 12:55:00
7:15 AM,-0.9,-6.7,77,30.71,10.0,Calm,Calm,-,N/A,,Clear,0,2013-12-07 13:15:00
7:35 AM,-0.4,-6.3,76,30.71,10.0,NW,4.6,-,N/A,,Clear,320,2013-12-07 13:35:00
7:55 AM,0.1,-6.0,75,30.72,10.0,NW,3.5,-,N/A,,Clear,320,2013-12-07 13:55:00
8:15 AM,1.0,-5.6,74,30.72,10.0,Calm,Calm,-,N/A,,Clear,0,2013-12-07 14:15:00
8:35 AM,1.9,-4.9,73,30.73,10.0,Calm,Calm,-,N/A,,Clear,0,2013-12-07 14:35:00
8:55 AM,2.1,-4.9,72,30.72,10.0,NNE,3.5,-,N/A,,Clear,30,2013-12-07 14:55:00
9:15 AM,2.7,-4.4,73,30.72,10.0,North,4.6,-,N/A,,Clear,10,2013-12-07 15:15:00
9:35 AM,3.2,-4.2,71,30.72,10.0,North,3.5,-,N/A,,Clear,10,2013-12-07 15:35:00
9:55 AM,3.9,-3.8,70,30.71,10.0,East,3.5,-,N/A,,Clear,80,2013-12-07 15:55:00
10:15 AM,4.5,-3.5,70,30.72,10.0,Calm,Calm,-,N/A,,Clear,0,2013-12-07 16:15:00
10:35 AM,5.2,-3.5,68,30.72,10.0,Calm,Calm,-,N/A,,Clear,0,2013-12-07 16:35:00
10:55 AM,5.5,-3.1,68,30.71,10.0,Calm,Calm,-,N/A,,Clear,0,2013-12-07 16:55:00
11:15 AM,5.9,-2.9,67,30.71,10.0,Calm,Calm,-,N/A,,Clear,0,2013-12-07 17:15:00
11:35 AM,6.4,-2.7,66,30.69,10.0,Calm,Calm,-,N/A,,Clear,0,2013-12-07 17:35:00
11:55 AM,7.0,-3.1,63,30.67,10.0,East,3.5,-,N/A,,Clear,90,2013-12-07 17:55:00
12:15 PM,7.7,-3.3,61,30.66,10.0,Calm,Calm,-,N/A,,Clear,0,2013-12-07 18:15:00
12:35 PM,9.3,-2.7,58,30.65,10.0,Calm,Calm,-,N/A,,Clear,0,2013-12-07 18:35:00
12:55 PM,9.9,-3.8,54,30.63,10.0,Calm,Calm,-,N/A,,Clear,0,2013-12-07 18:55:00
1:15 PM,10.0,-3.3,55,30.62,10.0,Calm,Calm,-,N/A,,Clear,0,2013-12-07 19:15:00
1:35 PM,10.9,-3.6,52,30.60,10.0,Calm,Calm,-,N/A,,Clear,0,2013-12-07 19:35:00
1:55 PM,11.3,-3.5,52,30.59,10.0,Calm,Calm,-,N/A,,Clear,0,2013-12-07 19:55:00
2:15 PM,11.7,-4.0,50,30.58,10.0,Calm,Calm,-,N/A,,Clear,0,2013-12-07 20:15:00
2:35 PM,12.2,-4.0,48,30.56,10.0,Calm,Calm,-,N/A,,Clear,0,2013-12-07 20:35:00
2:55 PM,12.6,-3.5,49,30.55,10.0,East,3.5,-,N/A,,Clear,90,2013-12-07 20:55:00
3:15 PM,12.6,-3.6,48,30.54,10.0,ENE,3.5,-,N/A,,Scattered Clouds,70,2013-12-07 21:15:00
3:35 PM,12.7,-3.6,48,30.53,10.0,East,5.8,-,N/A,,Mostly Cloudy,80,2013-12-07 21:35:00
3:55 PM,12.4,-3.8,48,30.52,10.0,East,4.6,-,N/A,,Overcast,80,2013-12-07 21:55:00
4:15 PM,12.6,-3.5,49,30.50,10.0,ENE,8.1,-,N/A,,Overcast,60,2013-12-07 22:15:00
4:35 PM,12.7,-3.3,49,30.49,10.0,East,6.9,-,N/A,,Mostly Cloudy,90,2013-12-07 22:35:00
4:55 PM,12.7,-3.1,49,30.49,10.0,East,9.2,-,N/A,,Scattered Clouds,80,2013-12-07 22:55:00
5:15 PM,12.7,-3.8,48,30.48,10.0,East,11.5,-,N/A,,Scattered Clouds,80,2013-12-07 23:15:00
5:35 PM,12.4,-4.0,48,30.48,10.0,East,10.4,-,N/A,,Scattered Clouds,80,2013-12-07 23:35:00
5:55 PM,12.2,-2.4,52,30.48,10.0,ENE,8.1,-,N/A,,Clear,60,2013-12-07 23:55:00
6:15 PM,11.7,-1.8,55,30.49,10.0,East,6.9,-,N/A,,Scattered Clouds,80,2013-12-08 00:15:00
6:35 PM,11.8,-1.8,54,30.49,10.0,East,8.1,-,N/A,,Mostly Cloudy,80,2013-12-08 00:35:00
6:55 PM,12.0,-1.5,55,30.49,10.0,ENE,8.1,-,N/A,,Overcast,70,2013-12-08 00:55:00
7:15 PM,12.2,-1.5,54,30.49,10.0,ENE,6.9,-,N/A,,Overcast,70,2013-12-08 01:15:00
7:35 PM,12.6,-1.7,53,30.49,10.0,East,6.9,-,N/A,,Overcast,80,2013-12-08 01:35:00
7:55 PM,12.7,-1.8,52,30.49,10.0,East,6.9,-,N/A,,Overcast,80,2013-12-08 01:55:00
8:15 PM,12.7,-1.3,54,30.49,10.0,ENE,8.1,-,N/A,,Overcast,60,2013-12-08 02:15:00
8:35 PM,12.7,-0.2,56,30.48,10.0,ENE,6.9,-,N/A,,Overcast,70,2013-12-08 02:35:00
8:55 PM,12.4,2.5,65,30.47,3.0,ENE,6.9,-,N/A,Snow,Light Snow,70,2013-12-08 02:55:00
9:15 PM,12.2,5.0,73,30.47,2.5,ENE,8.1,-,N/A,Snow,Light Snow,70,2013-12-08 03:15:00
9:35 PM,12.2,5.9,76,30.46,2.5,ENE,5.8,-,N/A,Snow,Light Snow,60,2013-12-08 03:35:00
9:55 PM,12.2,6.6,78,30.45,4.0,ENE,5.8,-,N/A,Snow,Light Snow,70,2013-12-08 03:55:00
10:15 PM,12.2,6.8,79,30.44,3.0,ENE,8.1,-,N/A,Snow,Light Snow,70,2013-12-08 04:15:00
10:35 PM,12.6,7.5,80,30.43,2.5,East,8.1,-,N/A,Snow,Light Snow,80,2013-12-08 04:35:00
10:55 PM,12.9,8.2,82,30.42,2.5,East,8.1,-,N/A,Snow,Light Snow,80,2013-12-08 04:55:00
11:15 PM,13.5,8.8,82,30.40,2.5,East,9.2,-,N/A,Snow,Light Snow,90,2013-12-08 05:15:00
11:35 PM,13.3,9.0,83,30.39,3.0,East,9.2,-,N/A,Snow,Light Snow,100,2013-12-08 05:35:00
11:55 PM,13.5,9.3,84,30.38,2.5,East,11.5,-,N/A,Snow,Light Snow,90,2013-12-08 05:55:00